Palma de Mallorca Aeropuerto en Baleares

latitud = 39° 33' 39''N | longitud = 002° 44' 12''E
8 metros sobre el nivel del mar |

Fecha, hora, temperatura, viento dirección y velocidad, humedad y presión.

  • 25-09-2017 00:00:00 | 18.90°C | Calma |0.00 km/h | 92.00% | 1019.70 hPa
  • 24-09-2017 23:00:00 | 19.90°C | Noroeste |2.00 km/h | 88.00% | 1019.60 hPa
  • 24-09-2017 22:00:00 | 22.00°C | Oeste |11.00 km/h | 80.00% | 1019.50 hPa
  • 24-09-2017 21:00:00 | 22.60°C | Sudoeste |14.00 km/h | 77.00% | 1019.20 hPa
  • 24-09-2017 20:00:00 | 23.20°C | Sudoeste |15.00 km/h | 75.00% | 1019.10 hPa
  • 24-09-2017 19:00:00 | 24.40°C | Sudoeste |17.00 km/h | 70.00% | 1019.00 hPa
  • 24-09-2017 18:00:00 | 25.10°C | Sudoeste |22.00 km/h | 68.00% | 1019.10 hPa
  • 24-09-2017 17:00:00 | 25.50°C | Sudoeste |24.00 km/h | 65.00% | 1019.30 hPa
  • 24-09-2017 16:00:00 | 25.90°C | Sudoeste |22.00 km/h | 63.00% | 1019.70 hPa
  • 24-09-2017 15:00:00 | 25.60°C | Sudoeste |23.00 km/h | 63.00% | 1020.00 hPa
  • 24-09-2017 14:00:00 | 25.80°C | Sudoeste |24.00 km/h | 64.00% | 1020.10 hPa
  • 24-09-2017 13:00:00 | 25.60°C | Sudoeste |23.00 km/h | 65.00% | 1020.50 hPa
  • 24-09-2017 12:00:00 | 25.20°C | Sudoeste |15.00 km/h | 68.00% | 1020.70 hPa
  • 24-09-2017 11:00:00 | 24.20°C | Sudoeste |13.00 km/h | 71.00% | 1020.30 hPa
  • 24-09-2017 10:00:00 | 21.50°C | Calma |0.00 km/h | 79.00% | 1020.20 hPa
  • 24-09-2017 09:00:00 | 17.40°C | Calma |0.00 km/h | 91.00% | 1019.90 hPa
  • 24-09-2017 08:00:00 | 14.50°C | Calma |0.00 km/h | 96.00% | 1019.70 hPa
  • 24-09-2017 07:00:00 | 14.50°C | Nordeste |2.00 km/h | 96.00% | 1019.40 hPa
  • 24-09-2017 06:00:00 | 15.00°C | Calma |0.00 km/h | 95.00% | 1019.20 hPa
  • 24-09-2017 05:00:00 | 15.30°C | Este |3.00 km/h | 94.00% | 1019.50 hPa
  • 24-09-2017 04:00:00 | 15.60°C | Este |4.00 km/h | 93.00% | 1019.90 hPa
  • 24-09-2017 03:00:00 | 16.30°C | Nordeste |2.00 km/h | 93.00% | 1020.10 hPa
  • 24-09-2017 02:00:00 | 17.00°C | Norte |4.00 km/h | 94.00% | 1020.40 hPa
  • 24-09-2017 01:00:00 | 17.90°C | Norte |4.00 km/h | 90.00% | 1020.50 hPa
    • Datos gráficos mensuales de Palma de Mallorca Aeropuerto: